createdAt,value
2023-01-29T00:01:10.504Z,18.17
2023-01-29T00:03:34.736Z,15.67
2023-01-29T00:05:58.447Z,19.80
2023-01-29T00:08:22.153Z,21.17
2023-01-29T00:10:45.831Z,16.73
2023-01-29T00:13:09.575Z,18.00
2023-01-29T00:15:33.411Z,16.80
2023-01-29T00:17:58.601Z,18.47
2023-01-29T00:20:22.348Z,16.97
2023-01-29T00:22:46.336Z,17.37
2023-01-29T00:25:11.640Z,19.33
2023-01-29T00:27:35.407Z,16.60
2023-01-29T00:30:12.047Z,17.93
2023-01-29T00:32:35.949Z,19.97
2023-01-29T00:35:01.046Z,20.00
2023-01-29T00:37:24.843Z,19.40
2023-01-29T00:39:48.563Z,20.80
2023-01-29T00:42:29.004Z,21.33
2023-01-29T00:44:59.076Z,10.10
2023-01-29T00:47:33.437Z,22.67
2023-01-29T00:49:57.404Z,23.77
2023-01-29T00:52:25.416Z,24.73
2023-01-29T00:54:49.195Z,24.07
2023-01-29T00:57:12.936Z,25.07
2023-01-29T00:59:36.730Z,23.00
2023-01-29T01:02:17.793Z,27.97
2023-01-29T01:04:41.781Z,24.40
2023-01-29T01:07:05.619Z,24.27
2023-01-29T01:09:48.236Z,26.57
2023-01-29T01:12:11.960Z,29.60
2023-01-29T01:14:36.238Z,31.77
2023-01-29T01:17:00.433Z,29.27
2023-01-29T01:19:24.185Z,26.47
2023-01-29T01:21:48.412Z,27.50
2023-01-29T01:24:12.253Z,25.23
2023-01-29T01:26:37.608Z,31.90
2023-01-29T01:29:01.270Z,33.33
2023-01-29T01:31:25.194Z,29.23
2023-01-29T01:33:48.918Z,28.93
2023-01-29T01:36:14.088Z,31.97
2023-01-29T01:38:44.373Z,25.70
2023-01-29T01:41:08.476Z,29.70
2023-01-29T01:43:56.060Z,31.23
2023-01-29T01:46:20.186Z,35.07
2023-01-29T01:48:44.374Z,29.80
2023-01-29T01:51:08.680Z,26.27
2023-01-29T01:53:38.725Z,30.97
2023-01-29T01:56:07.349Z,32.53
2023-01-29T01:58:36.513Z,34.43
2023-01-29T02:01:02.135Z,32.97
2023-01-29T02:03:45.409Z,31.43
2023-01-29T02:06:28.738Z,29.13
2023-01-29T02:09:16.637Z,33.20
2023-01-29T02:11:40.931Z,33.57
2023-01-29T02:14:04.952Z,32.50
2023-01-29T02:16:30.596Z,36.20
2023-01-29T02:18:54.960Z,30.50
2023-01-29T02:21:51.750Z,31.70
2023-01-29T02:24:52.683Z,36.30
2023-01-29T02:27:19.897Z,31.10
2023-01-29T02:29:56.741Z,34.03
2023-01-29T02:32:29.382Z,31.17
2023-01-29T02:35:29.870Z,32.40
2023-01-29T02:38:05.223Z,35.90
2023-01-29T02:40:36.401Z,31.97
2023-01-29T02:43:10.276Z,33.23
2023-01-29T02:45:45.041Z,25.77
2023-01-29T02:48:12.097Z,33.33
2023-01-29T02:50:44.935Z,33.87
2023-01-29T02:53:15.643Z,33.10
2023-01-29T02:55:46.312Z,34.23
2023-01-29T02:58:16.340Z,35.83
2023-01-29T03:00:47.456Z,33.33
2023-01-29T03:03:17.264Z,36.90
2023-01-29T03:05:55.000Z,35.53
2023-01-29T03:08:42.998Z,30.53
2023-01-29T03:11:08.375Z,36.83
2023-01-29T03:13:42.215Z,29.40
2023-01-29T03:16:15.853Z,35.47
2023-01-29T03:18:50.838Z,29.03
2023-01-29T03:21:38.223Z,30.20
2023-01-29T03:24:19.470Z,33.73
2023-01-29T03:27:03.424Z,33.70
2023-01-29T03:29:51.315Z,37.73
2023-01-29T03:32:18.813Z,33.43
2023-01-29T03:34:51.831Z,30.93
2023-01-29T03:37:22.647Z,37.90
2023-01-29T03:39:46.821Z,35.80
2023-01-29T03:42:20.548Z,30.40
2023-01-29T03:44:54.501Z,35.20
2023-01-29T03:47:40.544Z,34.87
2023-01-29T03:50:12.322Z,31.87
2023-01-29T03:52:47.346Z,33.47
2023-01-29T03:55:17.687Z,37.07
2023-01-29T03:57:45.708Z,35.70
2023-01-29T04:00:19.761Z,33.03
2023-01-29T04:03:03.188Z,35.03
2023-01-29T04:05:36.020Z,36.13
2023-01-29T04:08:12.319Z,36.03
2023-01-29T04:10:39.540Z,39.20
2023-01-29T04:13:07.996Z,37.17
2023-01-29T04:15:36.604Z,34.77
2023-01-29T04:18:02.280Z,34.47
2023-01-29T04:20:52.404Z,34.50
2023-01-29T04:23:24.570Z,40.30
2023-01-29T04:25:58.022Z,34.60
2023-01-29T04:28:26.677Z,38.33
2023-01-29T04:30:56.188Z,39.47
2023-01-29T04:33:32.457Z,41.50
2023-01-29T04:36:16.265Z,39.03
2023-01-29T04:38:55.887Z,36.73
2023-01-29T04:41:26.869Z,39.13
2023-01-29T04:44:01.549Z,41.00
2023-01-29T04:46:35.068Z,41.97
2023-01-29T04:49:18.696Z,43.77
2023-01-29T04:51:51.140Z,42.20
2023-01-29T04:54:25.755Z,38.53
2023-01-29T04:56:56.674Z,39.93
2023-01-29T04:59:26.851Z,38.83
2023-01-29T05:01:51.126Z,39.10
2023-01-29T05:04:21.259Z,42.37
2023-01-29T05:06:46.727Z,46.13
2023-01-29T05:09:11.278Z,37.47
2023-01-29T05:11:35.894Z,42.17
2023-01-29T05:14:00.583Z,43.83
2023-01-29T05:16:29.354Z,44.40
2023-01-29T05:18:53.547Z,43.07
2023-01-29T05:21:18.854Z,41.17
2023-01-29T05:23:57.371Z,40.60
2023-01-29T05:26:39.895Z,41.80
2023-01-29T05:29:03.633Z,46.93
2023-01-29T05:31:27.394Z,47.40
2023-01-29T05:33:51.223Z,42.53
2023-01-29T05:36:14.870Z,48.50
2023-01-29T05:38:40.059Z,43.07
2023-01-29T05:41:03.824Z,41.47
2023-01-29T05:43:27.676Z,49.17
2023-01-29T05:45:55.555Z,46.73
2023-01-29T05:48:19.387Z,43.83
2023-01-29T05:50:43.137Z,40.93
2023-01-29T05:53:06.981Z,42.37
2023-01-29T05:55:32.142Z,44.63
2023-01-29T05:57:55.968Z,44.70
2023-01-29T06:00:20.892Z,48.73
2023-01-29T06:02:45.267Z,37.60
2023-01-29T06:05:10.299Z,42.97
2023-01-29T06:07:34.086Z,42.67
2023-01-29T06:09:57.716Z,46.80
2023-01-29T06:12:22.835Z,49.93
2023-01-29T06:14:46.461Z,45.10
2023-01-29T06:17:10.242Z,45.53
2023-01-29T06:19:33.912Z,45.60
2023-01-29T06:21:57.650Z,47.80
2023-01-29T06:24:21.318Z,44.73
2023-01-29T06:26:45.138Z,45.23
2023-01-29T06:29:10.307Z,46.70
2023-01-29T06:31:38.757Z,31.60
2023-01-29T06:34:03.893Z,47.70
2023-01-29T06:36:27.579Z,46.37
2023-01-29T06:38:51.340Z,46.57
2023-01-29T06:41:19.925Z,49.53
2023-01-29T06:43:45.896Z,49.20
2023-01-29T06:46:11.169Z,46.30
2023-01-29T06:48:34.810Z,48.73
2023-01-29T06:51:03.316Z,44.80
2023-01-29T06:53:27.094Z,50.40
2023-01-29T06:55:53.443Z,46.90
2023-01-29T06:58:17.096Z,44.63
2023-01-29T07:00:41.028Z,47.13
2023-01-29T07:03:06.711Z,44.90
2023-01-29T07:05:30.510Z,45.23
2023-01-29T07:07:54.239Z,46.83
2023-01-29T07:10:18.672Z,49.67
2023-01-29T07:12:42.498Z,47.67
2023-01-29T07:15:07.812Z,45.30
2023-01-29T07:17:31.494Z,49.83
2023-01-29T07:19:56.703Z,50.03
2023-01-29T07:22:20.395Z,53.47
2023-01-29T07:24:44.817Z,53.70
2023-01-29T07:27:08.599Z,51.57
2023-01-29T07:29:32.295Z,53.37
2023-01-29T07:31:56.079Z,48.17
2023-01-29T07:34:20.054Z,48.77
2023-01-29T07:36:45.334Z,46.47
2023-01-29T07:39:09.113Z,51.87
2023-01-29T07:41:32.844Z,43.23
2023-01-29T07:43:56.783Z,48.60
2023-01-29T07:46:20.500Z,52.33
2023-01-29T07:48:44.369Z,46.33
2023-01-29T07:51:08.421Z,49.17
2023-01-29T07:53:33.869Z,46.03
2023-01-29T07:55:58.035Z,51.47
2023-01-29T07:58:22.260Z,50.50
2023-01-29T08:00:46.374Z,50.30
2023-01-29T08:03:16.239Z,47.87
2023-01-29T08:05:40.418Z,45.00
2023-01-29T08:08:07.359Z,48.77
2023-01-29T08:10:33.109Z,52.07
2023-01-29T08:12:58.266Z,46.70
2023-01-29T08:15:22.011Z,55.07
2023-01-29T08:17:57.224Z,48.33
2023-01-29T08:20:23.369Z,39.07
2023-01-29T08:22:47.965Z,49.87
2023-01-29T08:25:11.993Z,48.87
2023-01-29T08:27:37.640Z,52.30
2023-01-29T08:30:01.645Z,52.57
2023-01-29T08:32:25.486Z,52.53
2023-01-29T08:34:49.318Z,52.63
2023-01-29T08:37:13.193Z,52.53
2023-01-29T08:39:36.963Z,50.13
2023-01-29T08:42:00.653Z,49.67
2023-01-29T08:44:25.963Z,49.50
2023-01-29T08:46:49.694Z,51.37
2023-01-29T08:49:13.605Z,46.40
2023-01-29T08:51:37.399Z,52.87
2023-01-29T08:54:01.120Z,41.87
2023-01-29T08:56:24.974Z,58.77
2023-01-29T08:58:48.852Z,51.77
2023-01-29T09:01:15.649Z,46.60
2023-01-29T09:03:41.228Z,51.00
2023-01-29T09:06:05.742Z,42.70
2023-01-29T09:08:29.488Z,46.50
2023-01-29T09:10:53.257Z,50.67
2023-01-29T09:13:17.048Z,49.13
2023-01-29T09:15:40.709Z,53.10
2023-01-29T09:18:07.518Z,47.00
2023-01-29T09:20:31.207Z,41.53
2023-01-29T09:22:56.732Z,51.37
2023-01-29T09:25:20.542Z,49.07
2023-01-29T09:27:44.272Z,43.90
2023-01-29T09:30:09.470Z,46.53
2023-01-29T09:35:19.201Z,52.37
2023-01-29T09:37:42.899Z,44.70
2023-01-29T09:40:08.645Z,48.17
2023-01-29T09:42:41.985Z,43.67
2023-01-29T09:45:13.870Z,49.60
2023-01-29T09:47:38.478Z,49.83
2023-01-29T09:50:05.949Z,44.23
2023-01-29T09:52:34.829Z,47.07
2023-01-29T09:55:04.851Z,46.20
2023-01-29T09:57:38.493Z,46.83
2023-01-29T10:00:02.337Z,44.83
2023-01-29T10:03:11.042Z,41.70
2023-01-29T10:05:52.024Z,44.00
2023-01-29T10:08:45.056Z,40.73
2023-01-29T10:11:20.612Z,47.33
2023-01-29T10:13:53.615Z,40.60
2023-01-29T10:16:39.582Z,40.03
2023-01-29T10:19:25.392Z,40.73
2023-01-29T10:22:28.828Z,36.10
2023-01-29T10:24:59.201Z,39.57
2023-01-29T10:27:22.972Z,36.73
2023-01-29T10:29:50.664Z,38.47
2023-01-29T10:32:18.587Z,36.77
2023-01-29T10:34:47.054Z,37.63
2023-01-29T10:37:19.713Z,36.03
2023-01-29T10:39:43.689Z,38.00
2023-01-29T10:42:24.367Z,37.10
2023-01-29T10:45:05.116Z,36.60
2023-01-29T10:47:55.472Z,28.33
2023-01-29T10:50:35.731Z,35.33
2023-01-29T10:53:20.831Z,34.70
2023-01-29T10:55:56.619Z,32.90
2023-01-29T10:58:32.505Z,32.87
2023-01-29T11:00:56.237Z,32.43
2023-01-29T11:03:28.470Z,32.47
2023-01-29T11:05:59.957Z,34.57
2023-01-29T11:08:29.486Z,32.80
2023-01-29T11:11:04.295Z,27.80
2023-01-29T11:13:36.661Z,31.63
2023-01-29T11:16:00.362Z,22.50
2023-01-29T11:18:24.039Z,32.53
2023-01-29T11:20:48.350Z,32.70
2023-01-29T11:23:28.535Z,32.47
2023-01-29T11:25:55.651Z,29.13
2023-01-29T11:28:40.127Z,28.57
2023-01-29T11:31:04.318Z,27.87
2023-01-29T11:33:28.084Z,29.80
2023-01-29T11:35:53.009Z,28.87
2023-01-29T11:38:23.242Z,27.33
2023-01-29T11:40:47.418Z,25.30
2023-01-29T11:43:21.871Z,30.37
2023-01-29T11:45:47.440Z,28.10
2023-01-29T11:48:17.836Z,26.83
2023-01-29T11:50:42.224Z,17.17
2023-01-29T11:53:07.169Z,28.00
2023-01-29T11:55:49.502Z,23.70
2023-01-29T11:58:18.818Z,25.90
2023-01-29T12:00:48.654Z,26.83
2023-01-29T12:03:18.178Z,28.90
2023-01-29T12:05:43.217Z,26.50
2023-01-29T12:08:19.057Z,25.93
2023-01-29T12:10:44.048Z,24.93
2023-01-29T12:13:22.864Z,28.40
2023-01-29T12:15:49.134Z,28.43
2023-01-29T12:18:21.539Z,30.47
2023-01-29T12:20:51.652Z,25.93
2023-01-29T12:23:32.399Z,26.13
2023-01-29T12:26:05.860Z,25.73
2023-01-29T12:28:44.461Z,27.70
2023-01-29T12:31:23.801Z,31.70
2023-01-29T12:33:54.460Z,28.80
2023-01-29T12:36:27.168Z,28.23
2023-01-29T12:38:51.217Z,28.97
2023-01-29T12:41:40.327Z,25.97
2023-01-29T12:44:12.121Z,29.47
2023-01-29T12:46:50.544Z,26.70
2023-01-29T12:49:20.575Z,29.47
2023-01-29T12:51:54.486Z,29.90
2023-01-29T12:54:24.784Z,25.60
2023-01-29T12:56:52.151Z,30.67
2023-01-29T12:59:25.086Z,24.07
2023-01-29T13:01:54.645Z,29.13
2023-01-29T13:04:30.803Z,29.67
2023-01-29T13:07:03.012Z,31.47
2023-01-29T13:09:33.689Z,29.97
2023-01-29T13:12:02.143Z,29.50
2023-01-29T13:14:30.076Z,30.93
2023-01-29T13:17:07.702Z,29.70
2023-01-29T13:19:36.892Z,27.43
2023-01-29T13:22:05.777Z,30.97
2023-01-29T13:24:37.967Z,31.57
2023-01-29T13:27:02.383Z,29.73
2023-01-29T13:29:28.218Z,32.03
2023-01-29T13:31:55.696Z,33.07
2023-01-29T13:34:24.939Z,29.90
2023-01-29T13:36:52.764Z,35.83
2023-01-29T13:39:26.268Z,33.47
2023-01-29T13:41:51.819Z,29.57
2023-01-29T13:44:26.557Z,34.10
2023-01-29T13:46:57.458Z,27.07
2023-01-29T13:49:33.128Z,31.80
2023-01-29T13:51:57.319Z,34.03
2023-01-29T13:54:26.255Z,32.70
2023-01-29T13:57:01.620Z,31.13
2023-01-29T13:59:53.546Z,29.33
2023-01-29T14:02:30.270Z,30.47
2023-01-29T14:05:33.899Z,33.90
2023-01-29T14:07:59.453Z,30.50
2023-01-29T14:10:25.407Z,34.10
2023-01-29T14:13:28.152Z,32.87
2023-01-29T14:16:37.151Z,35.50
2023-01-29T14:19:04.406Z,34.90
2023-01-29T14:21:32.052Z,37.00
2023-01-29T14:23:59.387Z,38.27
2023-01-29T14:26:28.254Z,34.57
2023-01-29T14:29:06.057Z,34.63
2023-01-29T14:31:40.958Z,39.40
2023-01-29T14:34:16.824Z,40.70
2023-01-29T14:36:42.249Z,41.33
2023-01-29T14:39:07.023Z,32.37
2023-01-29T14:41:34.129Z,34.47
2023-01-29T14:44:48.593Z,29.93
2023-01-29T14:47:23.499Z,39.60
2023-01-29T14:49:55.495Z,43.27
2023-01-29T14:52:23.159Z,45.10
2023-01-29T14:54:48.950Z,42.47
2023-01-29T14:57:17.055Z,47.10
2023-01-29T14:59:51.294Z,43.93
2023-01-29T15:02:22.616Z,46.37
2023-01-29T15:04:51.475Z,36.17
2023-01-29T15:07:27.131Z,46.40
2023-01-29T15:10:07.913Z,42.93
2023-01-29T15:12:47.682Z,45.33
2023-01-29T15:15:22.296Z,44.97
2023-01-29T15:17:57.241Z,45.37
2023-01-29T15:20:37.034Z,46.27
2023-01-29T15:23:03.280Z,33.90
2023-01-29T15:25:28.772Z,39.67
2023-01-29T15:27:53.213Z,44.50
2023-01-29T15:30:21.143Z,37.00
2023-01-29T15:32:45.132Z,44.13
2023-01-29T15:35:11.801Z,45.53
2023-01-29T15:37:38.771Z,39.80
2023-01-29T15:40:03.486Z,42.67
2023-01-29T15:42:29.627Z,27.60
2023-01-29T15:44:55.646Z,49.07
2023-01-29T15:47:19.822Z,70.40
2023-01-29T15:49:44.477Z,41.27
2023-01-29T15:52:16.672Z,43.70
2023-01-29T15:54:42.207Z,36.50
2023-01-29T15:57:07.378Z,43.03
2023-01-29T15:59:35.728Z,42.67
2023-01-29T16:02:00.127Z,44.70
2023-01-29T16:04:29.044Z,43.67
2023-01-29T16:06:55.005Z,44.87
2023-01-29T16:09:23.780Z,44.87
2023-01-29T16:11:50.540Z,43.07
2023-01-29T16:14:17.677Z,46.50
2023-01-29T16:16:45.006Z,43.10
2023-01-29T16:19:22.408Z,39.73
2023-01-29T16:21:47.072Z,43.07
2023-01-29T16:24:15.936Z,38.50
2023-01-29T16:26:48.370Z,45.03
2023-01-29T16:29:18.595Z,43.63
2023-01-29T16:31:44.574Z,36.27
2023-01-29T16:34:10.452Z,42.90
2023-01-29T16:36:34.367Z,36.27
2023-01-29T16:39:01.224Z,41.60
2023-01-29T16:41:33.273Z,35.07
2023-01-29T16:44:00.443Z,43.13
2023-01-29T16:46:34.098Z,42.30
2023-01-29T16:48:57.881Z,46.27
2023-01-29T16:51:28.430Z,42.13
2023-01-29T16:54:02.569Z,42.70
2023-01-29T16:56:29.029Z,37.27
2023-01-29T16:58:53.778Z,44.07
2023-01-29T17:01:19.702Z,38.03
2023-01-29T17:03:43.981Z,36.80
2023-01-29T17:06:11.906Z,41.90
2023-01-29T17:08:37.174Z,41.03
2023-01-29T17:11:01.690Z,36.23
2023-01-29T17:13:31.430Z,22.47
2023-01-29T17:15:55.336Z,28.83
2023-01-29T17:18:24.583Z,37.23
2023-01-29T17:20:48.535Z,41.17
2023-01-29T17:23:12.292Z,38.40
2023-01-29T17:25:35.996Z,29.63
2023-01-29T17:28:02.238Z,37.77
2023-01-29T17:30:28.633Z,36.40
2023-01-29T17:32:52.366Z,32.90
2023-01-29T17:35:19.172Z,34.13
2023-01-29T17:37:43.595Z,38.97
2023-01-29T17:40:18.163Z,36.63
2023-01-29T17:42:41.945Z,25.83
2023-01-29T17:45:06.450Z,31.30
2023-01-29T17:47:30.626Z,33.10
2023-01-29T17:49:54.484Z,33.17
2023-01-29T17:52:19.787Z,34.43
2023-01-29T17:54:43.461Z,40.70
2023-01-29T17:57:07.224Z,39.63
2023-01-29T17:59:33.590Z,34.90
2023-01-29T18:01:57.600Z,32.27
2023-01-29T18:04:21.485Z,39.73
2023-01-29T18:06:48.809Z,34.90
2023-01-29T18:09:14.954Z,30.77
2023-01-29T18:11:38.818Z,33.57
2023-01-29T18:14:13.605Z,31.57
2023-01-29T18:16:38.366Z,34.17
2023-01-29T18:19:02.463Z,29.30
2023-01-29T18:21:26.179Z,30.77
2023-01-29T18:23:49.872Z,27.20
2023-01-29T18:26:18.120Z,31.37
2023-01-29T18:28:43.535Z,28.40
2023-01-29T18:31:07.543Z,32.90
2023-01-29T18:33:31.423Z,32.13
2023-01-29T18:35:55.232Z,32.23
2023-01-29T18:38:19.489Z,30.77
2023-01-29T18:40:43.395Z,26.53
2023-01-29T18:43:08.647Z,31.63
2023-01-29T18:45:32.738Z,24.70
2023-01-29T18:47:56.469Z,33.43
2023-01-29T18:50:23.397Z,28.60
2023-01-29T18:52:47.073Z,31.00
2023-01-29T18:55:11.251Z,28.93
2023-01-29T18:58:26.349Z,29.27
2023-01-29T19:00:21.411Z,23.63
2023-01-29T19:02:46.609Z,32.83
2023-01-29T19:05:10.907Z,29.60
2023-01-29T19:07:34.603Z,24.23
2023-01-29T19:09:58.254Z,28.10
2023-01-29T19:12:22.954Z,31.30
2023-01-29T19:14:46.784Z,27.50
2023-01-29T19:17:11.906Z,28.77
2023-01-29T19:19:36.040Z,29.67
2023-01-29T19:21:59.810Z,30.63
2023-01-29T19:24:24.298Z,28.83
2023-01-29T19:26:48.180Z,34.87
2023-01-29T19:29:11.999Z,30.53
2023-01-29T19:31:35.640Z,22.17
2023-01-29T19:34:00.783Z,29.97
2023-01-29T19:36:24.437Z,34.23
2023-01-29T19:38:49.125Z,33.07
2023-01-29T19:41:13.012Z,26.73
2023-01-29T19:43:38.265Z,26.90
2023-01-29T19:46:03.099Z,29.90
2023-01-29T19:48:27.111Z,51.07
2023-01-29T19:50:56.448Z,28.17
2023-01-29T19:53:20.238Z,24.90
2023-01-29T19:55:43.965Z,31.27
2023-01-29T19:58:07.683Z,27.77
2023-01-29T20:00:31.450Z,26.00
2023-01-29T20:02:55.222Z,24.90
2023-01-29T20:05:20.380Z,24.43
2023-01-29T20:07:45.932Z,26.67
2023-01-29T20:10:17.416Z,23.87
2023-01-29T20:12:41.342Z,25.57
2023-01-29T20:15:07.339Z,23.70
2023-01-29T20:17:31.392Z,22.07
2023-01-29T20:19:54.989Z,24.87
2023-01-29T20:22:18.725Z,23.93
2023-01-29T20:24:43.773Z,21.17
2023-01-29T20:27:07.713Z,21.43
2023-01-29T20:29:31.433Z,22.77
2023-01-29T20:31:55.208Z,20.67
2023-01-29T20:34:18.814Z,18.27
2023-01-29T20:36:42.619Z,21.30
2023-01-29T20:39:06.308Z,20.23
2023-01-29T20:41:31.565Z,14.43
2023-01-29T20:43:55.196Z,20.40
2023-01-29T20:46:19.601Z,18.87
2023-01-29T20:48:43.523Z,15.10
2023-01-29T20:51:12.458Z,20.53
2023-01-29T20:53:36.415Z,20.50
2023-01-29T20:56:01.039Z,16.17
2023-01-29T20:58:27.210Z,18.67
2023-01-29T21:00:50.994Z,19.27
2023-01-29T21:03:14.832Z,20.93
2023-01-29T21:05:38.503Z,15.90
2023-01-29T21:08:02.144Z,20.13
2023-01-29T21:10:25.887Z,15.53
2023-01-29T21:12:49.505Z,19.50
2023-01-29T21:15:14.636Z,19.03
2023-01-29T21:17:38.337Z,20.10
2023-01-29T21:20:04.066Z,20.20
2023-01-29T21:22:27.727Z,18.00
2023-01-29T21:24:51.647Z,18.07
2023-01-29T21:27:15.293Z,20.47
2023-01-29T21:29:38.925Z,18.23
2023-01-29T21:32:04.549Z,20.47
2023-01-29T21:34:28.356Z,18.70
2023-01-29T21:36:51.991Z,19.93
2023-01-29T21:39:20.671Z,16.13
2023-01-29T21:42:02.110Z,20.17
2023-01-29T21:44:25.811Z,18.87
2023-01-29T21:46:49.440Z,17.30
2023-01-29T21:49:14.540Z,22.13
2023-01-29T21:51:38.244Z,15.10
2023-01-29T21:54:03.520Z,21.07
2023-01-29T21:56:27.164Z,22.07
2023-01-29T21:58:52.288Z,18.93
2023-01-29T22:01:36.219Z,14.17
2023-01-29T22:03:59.725Z,17.87
2023-01-29T22:06:25.514Z,20.63
2023-01-29T22:08:50.646Z,19.23
2023-01-29T22:11:14.431Z,16.93
2023-01-29T22:13:38.198Z,14.33
2023-01-29T22:16:02.234Z,18.37
2023-01-29T22:18:26.102Z,13.37
2023-01-29T22:20:55.327Z,14.03
2023-01-29T22:23:20.570Z,18.10
2023-01-29T22:25:44.712Z,17.03
2023-01-29T22:28:09.261Z,15.53
2023-01-29T22:30:33.151Z,17.83
2023-01-29T22:32:56.935Z,14.03
2023-01-29T22:35:20.529Z,13.60
2023-01-29T22:37:45.083Z,17.67
2023-01-29T22:40:12.718Z,17.87
2023-01-29T22:42:36.438Z,18.43
2023-01-29T22:45:00.133Z,18.03
2023-01-29T22:47:23.944Z,15.77
2023-01-29T22:49:50.100Z,14.17
2023-01-29T22:52:13.868Z,15.63
2023-01-29T22:54:38.613Z,15.60
2023-01-29T22:57:03.782Z,17.80
2023-01-29T22:59:28.739Z,15.50
2023-01-29T23:01:53.794Z,17.10
2023-01-29T23:04:17.447Z,13.50
2023-01-29T23:06:41.174Z,17.13
2023-01-29T23:09:04.871Z,16.27
2023-01-29T23:11:28.872Z,15.03
2023-01-29T23:13:55.631Z,14.77
2023-01-29T23:16:21.429Z,12.40
2023-01-29T23:18:45.847Z,16.00
2023-01-29T23:21:10.522Z,16.27
2023-01-29T23:23:36.066Z,15.87
2023-01-29T23:26:17.721Z,14.27
2023-01-29T23:28:41.747Z,14.50
2023-01-29T23:31:07.075Z,15.73
2023-01-29T23:33:30.834Z,16.13
2023-01-29T23:35:54.432Z,14.97
2023-01-29T23:38:18.594Z,15.53
2023-01-29T23:40:42.268Z,13.33
2023-01-29T23:43:05.959Z,18.97
2023-01-29T23:45:29.610Z,17.00
2023-01-29T23:47:54.705Z,16.70
2023-01-29T23:50:19.277Z,19.30
2023-01-29T23:52:43.363Z,19.43
2023-01-29T23:55:08.598Z,18.97
2023-01-29T23:57:32.289Z,18.10
2023-01-29T23:59:55.912Z,20.30
